Time;durP1;ratioP1;P1;durP2;ratioP2;P2;SDS_P1;SDS_P2;PMS_P1;PMS_P2;Temp;Humidity;BMP_temperature;BMP_pressure;BME280_temperature;BME280_humidity;BME280_pressure;Samples;Min_cycle;Max_cycle;Signal;HPM_P1;HPM_P2
2022/03/16 00:00:19;;;;;;;5.63;3.00;;;17.40;44.30;16.50;102134.00;;;;5071478;28;20047;-65
2022/03/16 00:03:06;;;;;;;4.53;2.83;;;17.40;44.30;16.50;102132.00;;;;5059109;28;20206;-65
2022/03/16 00:05:53;;;;;;;5.97;3.33;;;17.30;44.20;16.50;102126.00;;;;5071550;28;20040;-64
2022/03/16 00:08:40;;;;;;;3.65;2.55;;;17.40;44.20;16.50;102131.00;;;;5075373;28;20266;-64
2022/03/16 00:11:26;;;;;;;4.35;2.60;;;17.40;44.30;16.50;102136.00;;;;5080810;28;20532;-64
2022/03/16 00:14:12;;;;;;;5.85;3.30;;;17.40;44.20;16.50;102133.00;;;;5064098;28;20040;-65
2022/03/16 00:16:58;;;;;;;3.15;2.65;;;17.30;44.20;16.50;102129.00;;;;5044091;28;20047;-64
2022/03/16 00:19:44;;;;;;;3.90;2.70;;;17.30;44.20;16.50;102130.00;;;;5057773;28;20398;-64
2022/03/16 00:22:30;;;;;;;4.47;2.80;;;17.30;44.10;16.50;102136.00;;;;5065572;28;20169;-64
2022/03/16 00:25:16;;;;;;;3.63;2.50;;;17.30;44.20;16.50;102134.00;;;;5060133;28;20482;-64
2022/03/16 00:28:02;;;;;;;4.03;2.42;;;17.30;44.10;16.50;102136.00;;;;5066331;28;20040;-65
2022/03/16 00:30:48;;;;;;;3.72;2.70;;;17.30;44.10;16.50;102139.00;;;;5062215;28;20040;-65
2022/03/16 00:33:34;;;;;;;4.63;2.67;;;17.30;44.10;16.50;102132.00;;;;5065459;28;20048;-65
2022/03/16 00:36:21;;;;;;;4.43;2.70;;;17.30;44.10;16.40;102128.00;;;;5067791;28;20474;-65
2022/03/16 00:39:07;;;;;;;3.05;2.50;;;17.30;44.10;16.50;102132.00;;;;5057185;28;20041;-64
2022/03/16 00:41:54;;;;;;;3.10;2.70;;;17.30;44.10;16.40;102128.00;;;;5036863;28;20048;-65
2022/03/16 00:44:40;;;;;;;3.78;2.92;;;17.40;44.10;16.40;102137.00;;;;5033764;28;20509;-64
2022/03/16 00:47:26;;;;;;;4.38;2.97;;;17.30;44.10;16.40;102135.00;;;;5066516;28;20045;-64
2022/03/16 00:50:12;;;;;;;3.65;2.65;;;17.30;44.10;16.40;102132.00;;;;5061652;28;20033;-65
2022/03/16 00:52:59;;;;;;;3.97;2.78;;;17.30;44.10;16.40;102126.00;;;;5057225;28;20069;-65
2022/03/16 00:55:45;;;;;;;2.95;2.65;;;17.30;44.10;16.40;102129.00;;;;5061295;28;20126;-65
2022/03/16 00:58:31;;;;;;;4.18;3.30;;;17.20;44.00;16.40;102131.00;;;;5060875;28;20040;-65
2022/03/16 01:01:17;;;;;;;5.30;2.90;;;17.30;44.00;16.40;102133.00;;;;5060038;28;20099;-65
2022/03/16 01:04:03;;;;;;;4.88;3.22;;;17.30;44.00;16.40;102140.00;;;;5047575;28;20048;-65
2022/03/16 01:06:53;;;;;;;4.43;3.05;;;17.30;44.00;16.40;102134.00;;;;5056128;28;20056;-64
2022/03/16 01:09:39;;;;;;;3.38;2.72;;;17.30;44.00;16.40;102133.00;;;;5058192;28;20033;-64
2022/03/16 01:12:25;;;;;;;4.30;2.90;;;17.30;44.00;16.40;102121.00;;;;5057451;28;20091;-65
2022/03/16 01:15:11;;;;;;;6.85;3.20;;;17.30;44.00;16.40;102122.00;;;;5057065;28;20040;-65
2022/03/16 01:17:57;;;;;;;3.80;2.90;;;17.30;44.00;16.40;102130.00;;;;5060330;28;20078;-64
2022/03/16 01:20:43;;;;;;;3.33;2.83;;;17.30;44.00;16.40;102116.00;;;;5036995;28;20076;-64
2022/03/16 01:23:29;;;;;;;5.18;2.75;;;17.30;44.00;16.40;102128.00;;;;5060486;28;20510;-64
2022/03/16 01:26:16;;;;;;;4.75;2.95;;;17.30;44.00;16.40;102127.00;;;;5055171;28;20049;-64
2022/03/16 01:29:02;;;;;;;6.20;3.28;;;17.20;44.60;16.40;102132.00;;;;5061164;28;20036;-64
2022/03/16 01:31:48;;;;;;;4.55;2.90;;;17.20;43.90;16.30;102134.00;;;;5066232;28;20089;-65
2022/03/16 01:34:35;;;;;;;5.25;3.50;;;17.20;43.80;16.30;102130.00;;;;5058297;28;20032;-65
2022/03/16 01:37:21;;;;;;;4.35;3.08;;;17.20;43.80;16.30;102140.00;;;;5057664;28;20544;-65
2022/03/16 01:40:07;;;;;;;3.67;3.17;;;17.20;43.80;16.30;102138.00;;;;5057068;28;20043;-65
2022/03/16 01:42:53;;;;;;;3.75;2.92;;;17.20;43.80;16.30;102135.00;;;;5059666;28;20482;-65
2022/03/16 01:45:50;;;;;;;3.78;3.17;;;17.20;43.80;16.30;102140.00;;;;5058876;28;20045;-65
2022/03/16 01:48:36;;;;;;;3.47;2.97;;;17.20;43.80;16.30;102143.00;;;;5033191;28;20048;-65
2022/03/16 01:51:22;;;;;;;3.95;2.90;;;17.20;43.70;16.30;102142.00;;;;5046591;28;20094;-64
2022/03/16 01:54:08;;;;;;;4.65;3.13;;;17.20;43.70;16.30;102151.00;;;;5044644;28;20445;-65
2022/03/16 01:56:54;;;;;;;3.85;3.15;;;17.10;43.70;16.30;102155.00;;;;5047094;28;20541;-65
2022/03/16 01:59:40;;;;;;;4.03;3.45;;;17.10;43.70;16.30;102158.00;;;;5054162;28;20052;-65
2022/03/16 02:02:26;;;;;;;4.70;3.28;;;17.20;43.70;16.30;102159.00;;;;5066992;28;20048;-64
2022/03/16 02:05:12;;;;;;;3.67;3.28;;;17.10;43.60;16.30;102148.00;;;;5056703;28;20041;-65
2022/03/16 02:07:58;;;;;;;5.40;3.30;;;17.10;43.60;16.30;102145.00;;;;5057161;28;20341;-65
2022/03/16 02:10:44;;;;;;;4.47;3.22;;;17.10;43.60;16.30;102147.00;;;;5059180;28;20051;-64
2022/03/16 02:13:34;;;;;;;3.38;3.03;;;17.10;43.60;16.30;102145.00;;;;5066241;28;20037;-65
2022/03/16 02:16:20;;;;;;;4.15;2.92;;;17.10;43.70;16.30;102150.00;;;;5062887;28;20453;-65
2022/03/16 02:19:06;;;;;;;5.00;3.33;;;17.10;43.60;16.30;102134.00;;;;5063728;28;20048;-65
2022/03/16 02:21:57;;;;;;;6.25;3.58;;;17.10;43.60;16.30;102137.00;;;;5058706;28;20078;-64
2022/03/16 02:24:43;;;;;;;4.05;3.10;;;17.10;43.70;16.30;102126.00;;;;5045082;28;20464;-64
2022/03/16 02:27:29;;;;;;;4.28;3.53;;;17.10;43.60;16.30;102143.00;;;;5060521;28;20123;-65
2022/03/16 02:30:15;;;;;;;3.13;2.80;;;17.10;43.60;16.30;102139.00;;;;5057578;28;20048;-64
2022/03/16 02:33:01;;;;;;;3.58;2.97;;;17.10;43.60;16.30;102142.00;;;;5066900;28;20448;-65
2022/03/16 02:35:47;;;;;;;5.80;3.55;;;17.10;43.60;16.30;102140.00;;;;5056251;28;20049;-65
2022/03/16 02:38:34;;;;;;;4.68;3.30;;;17.10;43.60;16.30;102143.00;;;;5071029;28;20469;-65
2022/03/16 02:41:20;;;;;;;4.63;3.15;;;17.10;43.50;16.30;102150.00;;;;5062350;28;20036;-64
2022/03/16 02:44:06;;;;;;;5.20;3.35;;;17.10;43.60;16.20;102144.00;;;;5056910;28;20554;-65
2022/03/16 02:46:52;;;;;;;4.57;3.75;;;17.20;43.50;16.20;102147.00;;;;5042386;28;20037;-65
2022/03/16 02:49:38;;;;;;;5.85;3.42;;;17.10;43.50;16.20;102149.00;;;;5057530;28;20081;-65
2022/03/16 02:52:24;;;;;;;4.22;3.25;;;17.10;43.50;16.20;102166.00;;;;5055809;28;20043;-65
2022/03/16 02:55:10;;;;;;;3.67;2.80;;;17.10;43.50;16.20;102167.00;;;;5055704;28;20090;-65
2022/03/16 02:57:56;;;;;;;4.97;3.70;;;17.10;43.50;16.20;102165.00;;;;5060018;28;20068;-64
2022/03/16 03:00:42;;;;;;;4.68;3.40;;;17.10;43.50;16.20;102165.00;;;;5060962;28;20557;-65
2022/03/16 03:03:28;;;;;;;4.38;3.60;;;17.10;43.50;16.20;102164.00;;;;5060855;28;20049;-65
2022/03/16 03:06:14;;;;;;;4.00;3.22;;;17.10;43.50;16.20;102161.00;;;;5056499;28;20130;-65
2022/03/16 03:09:00;;;;;;;3.55;2.95;;;17.10;43.50;16.20;102165.00;;;;5055662;28;20044;-65
2022/03/16 03:11:46;;;;;;;5.22;3.42;;;17.00;43.40;16.10;102164.00;;;;5057611;28;20459;-64
2022/03/16 03:14:32;;;;;;;2.97;2.67;;;17.00;43.40;16.20;102156.00;;;;5055331;28;20122;-65
2022/03/16 03:17:18;;;;;;;4.32;3.30;;;17.00;43.40;16.20;102163.00;;;;5056966;28;20094;-64
2022/03/16 03:20:05;;;;;;;4.65;3.20;;;17.00;43.40;16.10;102166.00;;;;5058404;28;20506;-64
2022/03/16 03:22:51;;;;;;;4.57;3.40;;;17.00;43.40;16.10;102159.00;;;;5043263;28;20044;-64
2022/03/16 03:25:37;;;;;;;4.20;3.10;;;17.00;43.40;16.20;102152.00;;;;5054444;28;20054;-65
2022/03/16 03:28:23;;;;;;;4.68;3.38;;;17.00;43.40;16.10;102167.00;;;;5057570;28;20114;-65
2022/03/16 03:31:09;;;;;;;6.53;3.72;;;17.00;43.40;16.10;102160.00;;;;5058727;28;20044;-65
2022/03/16 03:33:55;;;;;;;4.57;3.55;;;17.00;43.40;16.10;102160.00;;;;5053475;28;20041;-65
2022/03/16 03:36:42;;;;;;;5.43;3.83;;;17.00;43.40;16.10;102164.00;;;;5058799;28;20530;-65
2022/03/16 03:39:28;;;;;;;5.38;3.55;;;17.00;43.40;16.10;102165.00;;;;5054842;28;20052;-64
2022/03/16 03:42:14;;;;;;;4.60;3.65;;;17.00;43.40;16.10;102168.00;;;;5056627;28;20123;-64
2022/03/16 03:45:00;;;;;;;6.30;3.80;;;17.00;43.30;16.10;102166.00;;;;5056292;28;20048;-65
2022/03/16 03:47:46;;;;;;;4.90;3.58;;;17.00;44.10;16.10;102162.00;;;;5059286;28;20127;-65
2022/03/16 03:50:32;;;;;;;4.60;3.60;;;17.00;43.30;16.10;102162.00;;;;5049108;28;20045;-64
2022/03/16 03:53:18;;;;;;;4.72;3.70;;;17.00;43.30;16.10;102166.00;;;;5043508;28;20033;-64
2022/03/16 03:56:04;;;;;;;4.53;3.53;;;17.00;43.30;16.10;102165.00;;;;5061942;28;20049;-64
2022/03/16 03:58:50;;;;;;;7.28;4.15;;;17.00;43.30;16.10;102160.00;;;;5062127;28;20055;-64
2022/03/16 04:01:36;;;;;;;4.97;3.72;;;17.00;43.20;16.10;102157.00;;;;5061880;28;20032;-64
2022/03/16 04:04:22;;;;;;;5.93;3.58;;;17.00;43.30;16.10;102154.00;;;;5057373;28;20037;-65
2022/03/16 04:07:08;;;;;;;4.90;4.00;;;17.00;43.30;16.10;102153.00;;;;5058668;28;20043;-64
2022/03/16 04:09:55;;;;;;;5.97;3.70;;;17.00;43.20;16.10;102152.00;;;;5063728;28;20102;-64
2022/03/16 04:12:41;;;;;;;6.60;3.83;;;17.00;43.20;16.10;102156.00;;;;5057255;28;20029;-64
2022/03/16 04:15:27;;;;;;;4.80;3.80;;;17.00;43.20;16.10;102167.00;;;;5059711;28;20422;-65
2022/03/16 04:18:13;;;;;;;4.25;3.72;;;17.00;43.20;16.10;102159.00;;;;5062250;28;20739;-65
2022/03/16 04:20:59;;;;;;;3.97;3.58;;;17.00;43.20;16.10;102161.00;;;;5058521;28;20044;-64
2022/03/16 04:23:45;;;;;;;5.70;3.72;;;17.00;43.20;16.10;102163.00;;;;5056707;28;20516;-65
2022/03/16 04:26:31;;;;;;;7.95;3.92;;;17.00;43.20;16.10;102158.00;;;;5057713;28;20041;-64
2022/03/16 04:29:17;;;;;;;4.38;3.38;;;17.00;43.20;16.10;102165.00;;;;5062936;28;20041;-64
2022/03/16 04:32:04;;;;;;;5.63;4.13;;;17.00;43.20;16.10;102153.00;;;;5064026;28;20032;-65
2022/03/16 04:34:50;;;;;;;5.60;4.22;;;17.00;43.20;16.10;102155.00;;;;5042898;28;20478;-65
2022/03/16 04:37:36;;;;;;;5.00;4.30;;;17.00;43.20;16.10;102152.00;;;;5052999;28;20036;-64
2022/03/16 04:40:22;;;;;;;5.68;4.18;;;17.00;43.20;16.10;102143.00;;;;5047570;28;20044;-64
2022/03/16 04:43:08;;;;;;;5.53;4.30;;;16.90;43.20;16.00;102149.00;;;;5063975;28;20053;-64
2022/03/16 04:45:54;;;;;;;4.38;3.90;;;17.00;43.20;16.00;102143.00;;;;5061881;28;20041;-65
2022/03/16 04:48:40;;;;;;;5.15;3.83;;;16.90;43.10;16.00;102147.00;;;;5047397;28;20303;-64
2022/03/16 04:51:27;;;;;;;5.57;3.85;;;16.90;43.20;16.00;102137.00;;;;5046172;28;20040;-64
2022/03/16 04:54:14;;;;;;;5.43;3.88;;;16.90;43.20;16.00;102145.00;;;;5043064;28;20037;-65
2022/03/16 04:57:00;;;;;;;4.78;3.88;;;16.90;43.20;16.00;102149.00;;;;5068969;28;20482;-65
2022/03/16 04:59:46;;;;;;;5.20;3.80;;;16.90;43.20;16.00;102146.00;;;;5061792;28;20036;-64
2022/03/16 05:02:32;;;;;;;5.22;3.88;;;16.90;43.20;16.00;102154.00;;;;5061381;28;20064;-64
2022/03/16 05:05:18;;;;;;;5.38;3.63;;;16.90;43.10;16.00;102162.00;;;;5044502;28;20098;-64
2022/03/16 05:08:04;;;;;;;4.60;3.42;;;16.90;43.10;16.00;102157.00;;;;5059275;28;20059;-64
2022/03/16 05:10:50;;;;;;;5.88;4.03;;;16.90;43.10;16.00;102151.00;;;;5066099;28;20028;-65
2022/03/16 05:13:37;;;;;;;6.35;4.28;;;16.90;43.10;16.00;102159.00;;;;5038614;28;20039;-65
2022/03/16 05:16:23;;;;;;;5.20;3.72;;;16.90;43.10;16.00;102148.00;;;;5062990;28;20055;-64
2022/03/16 05:19:09;;;;;;;4.85;3.90;;;16.90;43.10;16.00;102164.00;;;;5062295;28;20044;-65
2022/03/16 05:21:55;;;;;;;5.70;3.53;;;16.80;43.00;16.00;102155.00;;;;5061065;28;20044;-65
2022/03/16 05:24:41;;;;;;;4.60;3.72;;;16.90;43.10;16.00;102164.00;;;;5055814;28;20044;-64
2022/03/16 05:27:27;;;;;;;4.15;3.28;;;16.80;43.00;16.00;102162.00;;;;5058591;28;20049;-65
2022/03/16 05:30:13;;;;;;;4.18;3.38;;;16.90;43.10;16.00;102170.00;;;;5059164;28;20036;-64
2022/03/16 05:33:02;;;;;;;7.43;3.88;;;16.90;43.10;16.00;102173.00;;;;5059304;28;20437;-64
2022/03/16 05:35:49;;;;;;;5.32;3.60;;;16.80;43.00;15.90;102175.00;;;;5039959;28;20048;-65
2022/03/16 05:38:35;;;;;;;4.78;3.70;;;16.80;43.00;15.90;102174.00;;;;5065535;28;20047;-64
2022/03/16 05:41:21;;;;;;;5.00;3.63;;;16.90;43.10;15.90;102181.00;;;;5062127;28;20776;-65
2022/03/16 05:44:09;;;;;;;6.35;3.67;;;16.80;43.00;15.90;102178.00;;;;5048195;28;20497;-64
2022/03/16 05:46:57;;;;;;;5.07;3.97;;;16.80;43.00;15.90;102182.00;;;;5065534;28;20071;-64
2022/03/16 05:49:43;;;;;;;4.95;3.80;;;16.80;43.00;15.90;102182.00;;;;5055904;28;20072;-65
2022/03/16 05:52:31;;;;;;;4.10;3.63;;;16.80;43.00;15.90;102189.00;;;;5064916;28;20053;-65
2022/03/16 05:55:17;;;;;;;5.97;4.20;;;16.80;43.00;15.90;102191.00;;;;5056323;28;20042;-64
2022/03/16 05:58:03;;;;;;;5.28;3.95;;;16.80;43.00;15.90;102198.00;;;;5060307;28;20037;-65
2022/03/16 06:00:49;;;;;;;4.95;4.10;;;16.80;43.00;15.90;102196.00;;;;5061567;28;20040;-64
2022/03/16 06:03:35;;;;;;;6.00;3.90;;;16.80;43.00;15.90;102197.00;;;;5059998;28;20126;-64
2022/03/16 06:06:21;;;;;;;6.72;4.50;;;16.80;43.00;15.90;102200.00;;;;5061725;28;20044;-64
2022/03/16 06:09:07;;;;;;;4.88;4.38;;;16.80;43.00;15.90;102197.00;;;;5059020;28;20298;-64
2022/03/16 06:11:53;;;;;;;5.05;4.22;;;16.80;43.00;15.90;102201.00;;;;5062613;28;20040;-64
2022/03/16 06:14:39;;;;;;;5.50;3.67;;;16.80;43.00;15.90;102206.00;;;;5065272;28;20024;-64
2022/03/16 06:17:25;;;;;;;6.05;4.25;;;16.90;43.00;15.90;102208.00;;;;5044747;28;20090;-64
2022/03/16 06:20:12;;;;;;;6.05;4.32;;;16.80;42.90;15.90;102208.00;;;;5057349;28;20080;-64
2022/03/16 06:22:58;;;;;;;4.78;3.42;;;16.80;42.90;15.90;102211.00;;;;5061712;28;20037;-64
2022/03/16 06:25:44;;;;;;;5.93;4.30;;;16.80;42.90;15.90;102212.00;;;;5059434;28;20452;-65
2022/03/16 06:28:30;;;;;;;4.93;4.07;;;16.80;42.90;15.90;102206.00;;;;5059351;28;20041;-64
2022/03/16 06:31:16;;;;;;;5.45;4.00;;;16.80;42.90;15.90;102205.00;;;;5055634;28;20037;-65
2022/03/16 06:34:02;;;;;;;5.10;4.00;;;16.80;42.90;15.90;102221.00;;;;5060141;28;20114;-65
2022/03/16 06:36:48;;;;;;;6.30;4.32;;;16.70;42.90;15.90;102219.00;;;;5056585;28;20138;-65
2022/03/16 06:39:34;;;;;;;5.65;4.03;;;16.80;42.90;15.90;102222.00;;;;5057946;28;20035;-64
2022/03/16 06:42:20;;;;;;;4.88;4.28;;;16.70;42.90;15.90;102219.00;;;;5053494;28;20036;-65
2022/03/16 06:45:07;;;;;;;5.32;4.10;;;16.80;42.90;15.90;102222.00;;;;5055099;28;20578;-64
2022/03/16 06:47:57;;;;;;;4.85;4.07;;;16.80;43.00;15.90;102235.00;;;;5039921;28;20110;-64
2022/03/16 06:50:44;;;;;;;5.75;3.85;;;16.80;42.90;15.90;102230.00;;;;5051323;28;20044;-64
2022/03/16 06:53:30;;;;;;;4.90;4.35;;;16.70;42.90;15.90;102232.00;;;;5062818;28;20040;-64
2022/03/16 06:56:16;;;;;;;5.07;4.18;;;16.80;42.90;15.90;102224.00;;;;5055914;28;20064;-64
2022/03/16 06:59:02;;;;;;;5.70;4.35;;;16.80;42.90;15.90;102237.00;;;;5056425;28;20084;-65
2022/03/16 07:01:48;;;;;;;4.78;4.07;;;16.80;42.90;15.90;102228.00;;;;5045199;28;20072;-65
2022/03/16 07:04:34;;;;;;;6.28;4.50;;;16.80;42.90;15.90;102224.00;;;;5061525;28;20086;-64
2022/03/16 07:07:20;;;;;;;4.32;3.80;;;16.80;42.90;15.90;102227.00;;;;5063970;28;20533;-64
2022/03/16 07:10:06;;;;;;;5.55;4.47;;;16.80;42.90;15.90;102224.00;;;;5056852;28;20091;-64
2022/03/16 07:12:52;;;;;;;5.18;3.97;;;16.80;42.90;15.90;102227.00;;;;5058246;28;20041;-64
2022/03/16 07:15:40;;;;;;;5.55;4.28;;;16.80;42.90;15.90;102228.00;;;;5055622;28;20035;-64
2022/03/16 07:18:26;;;;;;;6.88;4.28;;;16.80;42.90;15.90;102235.00;;;;5048334;28;20036;-64
2022/03/16 07:21:12;;;;;;;5.07;4.10;;;16.80;42.90;15.90;102239.00;;;;5042408;28;20167;-64
2022/03/16 07:23:58;;;;;;;6.50;5.22;;;16.80;42.90;15.90;102234.00;;;;5052276;28;20033;-64
2022/03/16 07:26:44;;;;;;;7.13;4.72;;;16.80;42.90;15.90;102230.00;;;;5060831;28;20474;-64
2022/03/16 07:29:30;;;;;;;6.20;4.47;;;16.90;42.90;15.90;102220.00;;;;5058874;28;20040;-65
2022/03/16 07:32:16;;;;;;;5.78;4.95;;;16.90;43.00;15.90;102231.00;;;;5042828;28;20032;-64
2022/03/16 07:35:02;;;;;;;6.68;4.97;;;16.80;42.90;15.90;102225.00;;;;5055303;28;20048;-64
2022/03/16 07:37:48;;;;;;;5.43;4.80;;;16.90;43.00;16.00;102226.00;;;;5053320;28;20060;-65
2022/03/16 07:40:35;;;;;;;6.90;5.43;;;16.90;43.00;16.00;102227.00;;;;5060734;28;20532;-64
2022/03/16 07:43:21;;;;;;;5.75;4.70;;;16.90;43.00;16.00;102233.00;;;;5059173;28;20041;-64
2022/03/16 07:46:07;;;;;;;6.70;4.88;;;16.90;42.90;16.00;102241.00;;;;5052091;28;20041;-64
2022/03/16 07:48:53;;;;;;;5.95;5.28;;;17.00;43.00;16.00;102235.00;;;;5058137;28;20143;-64
2022/03/16 07:51:39;;;;;;;8.55;5.57;;;17.00;43.00;16.00;102245.00;;;;5038612;28;20036;-65
2022/03/16 07:54:25;;;;;;;6.70;4.95;;;17.00;43.00;16.00;102247.00;;;;5059434;28;20064;-64
2022/03/16 07:57:11;;;;;;;6.90;5.15;;;17.00;43.00;16.00;102240.00;;;;5052474;28;20051;-64
2022/03/16 07:59:57;;;;;;;8.52;5.50;;;17.00;43.00;16.00;102242.00;;;;5053697;28;20044;-64
2022/03/16 08:02:44;;;;;;;6.95;5.60;;;17.00;43.00;16.00;102245.00;;;;5055829;28;20044;-64
2022/03/16 08:05:30;;;;;;;7.85;5.82;;;17.00;43.00;16.00;102239.00;;;;5053380;28;20045;-65
2022/03/16 08:08:18;;;;;;;8.15;5.40;;;17.10;43.00;16.10;102248.00;;;;5062376;28;20055;-64
2022/03/16 08:11:04;;;;;;;8.30;5.60;;;17.10;43.00;16.10;102245.00;;;;5056759;28;20032;-65
2022/03/16 08:13:50;;;;;;;7.82;5.45;;;17.10;43.00;16.10;102249.00;;;;5053460;28;20041;-64
2022/03/16 08:16:36;;;;;;;8.05;5.75;;;17.10;43.00;16.10;102237.00;;;;5059371;28;20040;-64
2022/03/16 08:19:22;;;;;;;6.97;5.60;;;17.10;43.00;16.10;102234.00;;;;5060178;28;20441;-64
2022/03/16 08:22:08;;;;;;;8.43;5.50;;;17.10;43.00;16.10;102233.00;;;;5054109;28;20040;-64
2022/03/16 08:24:54;;;;;;;7.22;5.32;;;17.10;43.00;16.10;102231.00;;;;5053039;28;20040;-64
2022/03/16 08:27:41;;;;;;;6.20;5.40;;;17.10;43.10;16.10;102232.00;;;;5042036;28;20053;-64
2022/03/16 08:30:27;;;;;;;7.13;5.20;;;17.20;43.10;16.10;102235.00;;;;5060571;28;20048;-64
2022/03/16 08:33:13;;;;;;;7.25;5.45;;;17.20;43.10;16.10;102236.00;;;;5064199;28;20218;-64
2022/03/16 08:36:01;;;;;;;8.43;5.82;;;17.20;43.50;16.10;102227.00;;;;5059039;28;20040;-64
2022/03/16 08:38:47;;;;;;;7.15;5.75;;;17.20;43.10;16.10;102220.00;;;;5058242;28;20040;-64
2022/03/16 08:41:33;;;;;;;6.95;5.28;;;17.10;43.10;16.10;102216.00;;;;5058524;28;20047;-64
2022/03/16 08:44:20;;;;;;;8.80;5.78;;;17.20;43.10;16.20;102215.00;;;;5061612;28;20080;-65
2022/03/16 08:47:07;;;;;;;8.47;5.53;;;17.20;43.10;16.20;102218.00;;;;5062612;28;20037;-64
2022/03/16 08:49:55;;;;;;;7.18;5.13;;;17.20;43.10;16.20;102216.00;;;;5057875;28;20337;-65
2022/03/16 08:52:41;;;;;;;8.05;5.55;;;17.20;43.10;16.20;102211.00;;;;5057726;28;20062;-64
2022/03/16 08:55:27;;;;;;;8.30;5.28;;;17.20;43.20;16.20;102201.00;;;;5059494;28;20124;-64
2022/03/16 08:58:14;;;;;;;7.32;5.63;;;17.30;43.20;16.20;102206.00;;;;5062748;28;20397;-64
2022/03/16 09:01:00;;;;;;;7.38;5.55;;;17.30;43.20;16.20;102201.00;;;;5058547;28;20041;-64
2022/03/16 09:03:46;;;;;;;7.03;5.00;;;17.20;43.20;16.20;102191.00;;;;5052324;28;20044;-64
2022/03/16 09:06:32;;;;;;;7.32;5.43;;;17.30;43.20;16.20;102181.00;;;;5045236;28;20052;-64
2022/03/16 09:09:19;;;;;;;9.65;5.13;;;17.30;43.20;16.20;102187.00;;;;5062854;28;20040;-64
2022/03/16 09:12:06;;;;;;;8.63;5.88;;;17.30;43.20;16.30;102176.00;;;;5060718;28;20094;-64
2022/03/16 09:14:52;;;;;;;7.00;5.50;;;17.30;43.20;16.30;102173.00;;;;5055845;28;20547;-65
2022/03/16 09:17:38;;;;;;;8.32;5.18;;;17.30;43.20;16.30;102168.00;;;;5055724;28;20066;-64
2022/03/16 09:20:24;;;;;;;8.43;5.50;;;17.30;43.20;16.30;102165.00;;;;5063703;28;20067;-65
2022/03/16 09:23:10;;;;;;;7.20;5.18;;;17.40;43.20;16.30;102158.00;;;;5054579;28;20037;-64
2022/03/16 09:25:56;;;;;;;8.07;4.97;;;17.30;43.10;16.30;102147.00;;;;5058629;28;20040;-64
2022/03/16 09:28:42;;;;;;;8.45;5.25;;;17.40;43.20;16.30;102160.00;;;;5047941;28;20451;-64
2022/03/16 09:31:28;;;;;;;7.55;5.32;;;17.40;43.20;16.30;102153.00;;;;5060768;28;20072;-64
2022/03/16 09:34:14;;;;;;;10.00;5.45;;;17.40;43.20;16.30;102146.00;;;;5043445;28;20040;-64
2022/03/16 09:37:00;;;;;;;8.02;5.35;;;17.40;43.10;16.30;102159.00;;;;5052436;28;20087;-65
2022/03/16 09:39:46;;;;;;;7.72;5.57;;;17.40;43.20;16.30;102144.00;;;;5059285;28;20356;-64
2022/03/16 09:42:33;;;;;;;11.60;5.18;;;17.50;43.10;16.40;102151.00;;;;5056605;28;20048;-64
2022/03/16 09:45:21;;;;;;;7.32;5.07;;;17.40;43.10;16.40;102142.00;;;;5045644;28;20505;-65
2022/03/16 09:48:07;;;;;;;8.73;5.40;;;17.40;43.10;16.40;102140.00;;;;5051931;28;20036;-64
2022/03/16 09:50:54;;;;;;;7.47;5.47;;;17.50;43.10;16.40;102151.00;;;;5054105;28;20037;-64
2022/03/16 09:53:40;;;;;;;9.18;4.93;;;17.40;43.00;16.40;102134.00;;;;5057180;28;20039;-65
2022/03/16 09:56:26;;;;;;;8.90;5.70;;;17.60;43.10;16.40;102127.00;;;;5059032;28;20071;-64
2022/03/16 09:59:12;;;;;;;9.25;5.45;;;17.50;43.10;16.40;102141.00;;;;5058042;28;20048;-64
2022/03/16 10:02:09;;;;;;;10.32;5.70;;;17.50;43.30;16.40;102141.00;;;;5062534;28;20406;-64
2022/03/16 10:04:55;;;;;;;8.20;5.33;;;17.50;43.10;16.40;102140.00;;;;5059502;28;20048;-64
2022/03/16 10:07:41;;;;;;;7.90;5.13;;;17.50;43.00;16.40;102141.00;;;;5064285;28;20278;-64
2022/03/16 10:13:43;;;;;;;7.32;5.07;;;17.50;43.00;16.40;102141.00;;;;5050074;28;20033;-64
2022/03/16 10:17:43;;;;;;;8.60;4.80;;;17.50;43.00;16.40;102154.00;;;;5063288;28;20465;-64
2022/03/16 10:19:35;;;;;;;7.80;4.88;;;17.50;43.00;16.40;102149.00;;;;5071606;28;20075;-64
2022/03/16 10:22:30;;;;;;;7.13;4.97;;;17.50;43.00;16.40;102154.00;;;;5078698;28;20457;-64
2022/03/16 10:25:17;;;;;;;7.45;5.10;;;17.50;43.00;16.40;102138.00;;;;5065948;28;20047;-65
2022/03/16 10:28:20;;;;;;;8.30;4.72;;;17.50;43.00;16.40;102146.00;;;;5037435;28;20075;-64
2022/03/16 10:31:08;;;;;;;6.40;4.78;;;17.60;43.80;16.40;102134.00;;;;5073230;28;20108;-64
2022/03/16 10:33:54;;;;;;;7.13;5.15;;;17.60;43.00;16.40;102142.00;;;;5075596;28;20493;-64
2022/03/16 10:36:41;;;;;;;8.45;5.50;;;17.50;43.00;16.40;102140.00;;;;5071081;28;20126;-64
2022/03/16 10:39:35;;;;;;;8.68;5.28;;;17.50;43.00;16.40;102138.00;;;;5076953;28;20052;-64
2022/03/16 10:48:40;;;;;;;8.00;5.10;;;17.60;43.00;16.50;102127.00;;;;5077552;28;20582;-64
2022/03/16 10:51:26;;;;;;;9.63;5.50;;;17.60;42.90;16.50;102134.00;;;;5075500;28;20052;-65
2022/03/16 10:54:15;;;;;;;6.82;5.13;;;17.60;43.00;16.50;102122.00;;;;5061864;28;20078;-64
2022/03/16 10:57:08;;;;;;;7.93;5.38;;;17.60;43.00;16.50;102131.00;;;;5070675;28;20040;-64
2022/03/16 10:59:54;;;;;;;9.02;5.25;;;17.60;42.90;16.50;102127.00;;;;5060806;28;20044;-65
2022/03/16 11:02:40;;;;;;;7.35;5.32;;;17.60;43.00;16.50;102116.00;;;;5066712;28;20040;-65
2022/03/16 11:05:26;;;;;;;9.13;5.40;;;17.60;43.00;16.50;102129.00;;;;5058102;28;20056;-64
2022/03/16 11:08:12;;;;;;;7.18;4.85;;;17.60;42.90;16.50;102127.00;;;;5062015;28;20029;-65
2022/03/16 11:10:58;;;;;;;8.38;5.60;;;17.60;42.90;16.50;102122.00;;;;5049884;28;20059;-64
2022/03/16 11:13:45;;;;;;;7.70;4.82;;;17.60;42.90;16.50;102130.00;;;;5071473;28;20086;-65
2022/03/16 11:16:32;;;;;;;8.05;5.60;;;17.60;42.90;16.50;102129.00;;;;5061396;28;20063;-64
2022/03/16 11:19:18;;;;;;;8.95;5.38;;;17.70;43.00;16.50;102127.00;;;;5039910;28;20044;-64
2022/03/16 11:22:25;;;;;;;9.00;4.97;;;17.70;42.90;16.50;102128.00;;;;5064964;28;20129;-65
2022/03/16 11:25:15;;;;;;;6.90;5.22;;;17.60;42.90;16.50;102128.00;;;;5041811;28;20053;-64
2022/03/16 11:28:02;;;;;;;8.50;5.55;;;17.70;42.90;16.50;102121.00;;;;5060868;28;20058;-64
2022/03/16 11:30:48;;;;;;;9.65;5.65;;;17.70;42.90;16.50;102122.00;;;;5046904;28;20043;-64
2022/03/16 11:33:48;;;;;;;7.35;4.90;;;17.70;42.90;16.50;102115.00;;;;5061572;28;20044;-65
2022/03/16 11:36:40;;;;;;;9.77;5.47;;;17.70;42.90;16.50;102121.00;;;;5060993;28;20039;-64
2022/03/16 11:39:28;;;;;;;6.32;5.00;;;17.70;42.90;16.60;102110.00;;;;5073068;28;20455;-64
2022/03/16 11:42:18;;;;;;;8.68;5.97;;;17.70;42.90;16.60;102102.00;;;;5035780;28;20049;-64
2022/03/16 11:45:54;;;;;;;9.77;5.68;;;17.60;42.90;16.50;102094.00;;;;5062833;28;20049;-65
2022/03/16 11:48:43;;;;;;;7.38;5.22;;;17.70;43.00;16.50;102098.00;;;;5053594;28;20049;-64
2022/03/16 11:51:29;;;;;;;8.27;4.95;;;17.70;43.00;16.60;102094.00;;;;5043075;28;20045;-65
2022/03/16 11:54:15;;;;;;;6.78;5.43;;;17.60;42.90;16.60;102092.00;;;;5050515;28;20067;-65
2022/03/16 11:57:01;;;;;;;7.55;5.50;;;17.70;42.90;16.60;102094.00;;;;5052026;28;20040;-65
2022/03/16 11:59:48;;;;;;;8.45;5.50;;;17.70;43.00;16.60;102083.00;;;;5057006;28;20049;-64
2022/03/16 12:02:34;;;;;;;8.45;5.18;;;17.70;43.00;16.60;102079.00;;;;5064231;28;20056;-65
2022/03/16 12:05:22;;;;;;;7.50;5.35;;;17.70;43.00;16.60;102080.00;;;;5025342;28;20378;-65
2022/03/16 12:08:12;;;;;;;;;;;17.70;42.90;16.60;102074.00;;;;5054996;28;20108;-64
2022/03/16 12:12:51;;;;;;;8.98;5.90;;;17.70;43.00;16.60;102072.00;;;;5058609;28;19913;-64
2022/03/16 12:14:06;;;;;;;8.95;5.90;;;17.90;43.00;16.60;102079.00;;;;5064048;28;20036;-64
2022/03/16 12:17:19;;;;;;;9.77;5.50;;;17.80;42.90;16.60;102081.00;;;;5071198;28;20121;-64
2022/03/16 12:20:31;;;;;;;7.00;5.35;;;17.80;43.00;16.60;102080.00;;;;5060378;28;20043;-64
2022/03/16 12:23:19;;;;;;;7.95;5.68;;;17.80;43.00;16.60;102076.00;;;;5054846;28;20406;-64